Latest Weather Observations for Canterbury

IDN60801

Issued at 9:05 pm EDT Thursday 27 November 2014 (issued every 30 minutes, with the page automatically refreshed every 10 minutes)

About weather observations | Map of weather stations | Latest weather observations for NSW | Other Formats
Station Details ID: 066194 Name: CANTERBURY RACECOURSE AWS Lat: -33.91 Lon: 151.11 Height: 3.0 m
Data from the previous 72 hours. | See also: Recent months at Canterbury
Date/Time
EDT
Temp
°C
App
Temp
°C
Dew
Point
Rel
Hum
%
Delta-T
°C
Wind Press
QNH
hPa
Press
MSL
hPa
Rain
since 9 am
mm
Dir
 
Spd
km/h
Gust
km/h
Spd
kts
Gust
kts
27/09:00pm 18.7 16.3 12.5 67 3.5 ESE 17 22 9 12 - - 0.0
27/08:30pm 18.7 17.1 12.9 69 3.3 SE 13 20 7 11 - - 0.0
27/08:00pm 18.6 17.0 12.8 69 3.3 SE 13 22 7 12 - - 0.0
27/07:30pm 18.5 16.2 12.9 70 3.1 SE 17 24 9 13 - - 0.0
27/07:00pm 18.4 15.1 12.8 70 3.1 SE 22 28 12 15 - - 0.0
27/06:30pm 18.6 15.8 13.2 71 3.0 ESE 20 28 11 15 - - 0.0
27/06:00pm 18.6 15.7 13.0 70 3.2 SE 20 33 11 18 - - 0.0
27/05:30pm 19.2 16.3 12.9 67 3.5 SSE 20 28 11 15 - - 0.0
27/05:00pm 19.2 16.4 13.2 68 3.4 SE 20 30 11 16 - - 0.0
27/04:30pm 19.3 16.9 12.8 66 3.7 SE 17 26 9 14 - - 0.0
27/04:00pm 19.6 17.1 12.4 63 4.0 SE 17 22 9 12 - - 0.0
27/03:30pm 19.5 16.5 12.5 64 3.9 SE 20 32 11 17 - - 0.0
27/03:00pm 19.8 16.8 12.6 63 4.0 SE 20 30 11 16 - - 0.0
27/02:30pm 20.0 17.2 12.7 63 4.1 SSE 19 28 10 15 - - 0.0
27/02:00pm 19.7 16.2 12.2 62 4.2 SSE 22 32 12 17 - - 0.0
27/01:30pm 19.9 16.7 13.1 65 3.9 SE 22 32 12 17 - - 0.0
27/01:00pm 19.3 16.3 12.6 65 3.8 SSE 20 30 11 16 - - 0.0
27/12:30pm 19.0 16.0 12.5 66 3.6 SE 20 30 11 16 - - 0.0
27/12:00pm 19.0 16.2 13.2 69 3.3 SE 20 30 11 16 - - 0.0
27/11:42am 18.8 16.0 13.2 70 3.2 SE 20 28 11 15 - - 0.0
27/11:30am 18.5 15.8 13.6 73 2.8 SSE 20 28 11 15 - - 0.0
27/11:00am 18.7 16.3 13.8 73 2.8 SE 19 30 10 16 - - 0.0
27/10:30am 18.3 14.5 13.6 74 2.7 SE 26 35 14 19 - - 0.0
27/10:00am 19.3 16.0 14.1 72 3.0 SE 24 35 13 19 - - 0.0
27/09:30am 19.2 16.6 13.8 71 3.1 SSE 20 32 11 17 - - 0.0
27/09:00am 18.8 14.7 13.9 73 2.8 SSE 28 41 15 22 - - 0.0
27/08:30am 19.1 16.3 13.3 69 3.3 SSE 20 30 11 16 - - 0.0
27/08:00am 18.8 15.9 14.1 74 2.7 SSE 22 35 12 19 - - 0.0
27/07:30am 18.5 15.9 13.8 74 2.7 SSE 20 35 11 19 - - 0.0
27/07:00am 19.3 18.1 13.9 71 3.1 SSE 13 32 7 17 - - 0.0
27/06:30am 19.4 17.4 13.8 70 3.2 SE 17 28 9 15 - - 0.0
27/06:00am 19.2 15.5 14.0 72 3.0 SE 26 39 14 21 - - 0.0
27/05:30am 19.0 15.9 15.7 81 2.0 SE 26 39 14 21 - - 0.0
27/05:00am 19.1 17.1 15.6 80 2.1 ESE 20 32 11 17 - - 0.0
27/04:30am 19.0 17.4 16.4 85 1.6 SE 20 28 11 15 - - 0.0
27/04:00am 19.6 18.8 17.2 86 1.5 SE 17 26 9 14 - - 0.0
27/03:30am 19.4 20.7 17.0 86 1.5 SSE 6 7 3 4 - - 0.0
27/03:00am 19.1 20.3 16.9 87 1.3 SSE 6 7 3 4 - - 0.0
27/02:30am 19.1 21.4 16.7 86 1.4 CALM 0 0 0 0 - - 0.0
27/02:00am 18.7 19.9 15.9 84 1.7 SE 4 6 2 3 - - 0.0
27/01:30am 19.3 20.4 16.5 84 1.7 SSE 6 7 3 4 - - 0.0
27/01:00am 19.6 20.4 16.4 82 1.9 SE 7 9 4 5 - - 0.0
27/12:30am 19.8 20.6 16.3 80 2.1 SE 7 9 4 5 - - 0.0
27/12:00am 20.1 21.2 16.5 80 2.2 SE 6 9 3 5 - - 0.0
 
Date/Time
EDT
Temp
°C
App
Temp
°C
Dew
Point
Rel
Hum
%
Delta-T
°C
Wind Press
QNH
hPa
Press
MSL
hPa
Rain
since 9 am
mm
Dir
 
Spd
km/h
Gust
km/h
Spd
kts
Gust
kts
26/11:30pm 20.2 20.7 16.6 80 2.2 SSE 9 13 5 7 - - 0.0
26/11:00pm 20.0 20.1 15.6 76 2.6 E 9 13 5 7 - - 0.0
26/10:30pm 20.6 19.2 15.6 73 3.0 E 17 24 9 13 - - 0.0
26/10:00pm 20.8 20.8 16.2 75 2.8 ESE 11 17 6 9 - - 0.0
26/09:30pm 20.5 20.3 15.7 74 2.9 E 11 19 6 10 - - 0.0
26/09:00pm 20.6 20.0 15.6 73 3.0 E 13 22 7 12 - - 0.0
26/08:30pm 20.7 19.7 15.5 72 3.1 E 15 24 8 13 - - 0.0
26/08:00pm 20.6 19.5 15.2 71 3.2 ENE 15 22 8 12 - - 0.0
26/07:30pm 21.1 19.1 15.4 70 3.4 ENE 20 28 11 15 - - 0.0
26/07:00pm 21.3 19.2 15.2 68 3.6 ENE 20 30 11 16 - - 0.0
26/06:30pm 21.6 19.5 15.2 67 3.8 ENE 20 30 11 16 - - 0.0
26/06:00pm 22.2 19.7 15.1 64 4.2 ENE 22 33 12 18 - - 0.0
26/05:30pm 23.0 20.6 15.3 62 4.6 ENE 22 32 12 17 - - 0.0
26/05:00pm 23.1 20.8 14.7 59 5.0 NE 20 35 11 19 - - 0.0
26/04:30pm 23.0 20.6 15.3 62 4.6 NE 22 37 12 20 - - 0.0
26/04:00pm 22.9 20.0 15.2 62 4.6 ENE 24 39 13 21 - - 0.0
26/03:30pm 22.9 20.0 15.2 62 4.6 E 24 33 13 18 - - 0.0
26/03:00pm 22.5 20.8 14.6 61 4.7 E 17 28 9 15 - - 0.0
26/02:30pm 23.3 21.4 15.1 60 4.9 NNE 19 28 10 15 - - 0.0
26/02:00pm 22.4 19.5 14.0 59 4.9 ENE 22 28 12 15 - - 0.0
26/01:30pm 23.2 21.3 15.3 61 4.7 NE 19 30 10 16 - - 0.0
26/01:00pm 21.8 19.8 13.9 61 4.6 NNE 17 28 9 15 - - 0.0
26/12:30pm 21.7 20.0 13.6 60 4.7 NE 15 20 8 11 - - 0.0
26/12:00pm 21.5 19.0 13.4 60 4.7 E 19 22 10 12 - - 0.0
26/11:30am 21.4 20.2 14.1 63 4.2 NE 13 20 7 11 - - 0.0
26/11:00am 21.1 19.2 13.0 60 4.6 NNE 15 24 8 13 - - 0.0
26/10:30am 22.0 20.2 13.4 58 5.0 NE 15 22 8 12 - - 0.0
26/10:00am 21.3 18.9 12.7 58 4.9 NE 17 24 9 13 - - 0.0
26/09:30am 21.4 19.7 12.3 56 5.1 NE 13 19 7 10 - - 0.0
26/09:00am 21.8 20.1 12.6 56 5.2 ENE 13 19 7 10 - - 0.0
26/08:30am 21.1 19.2 11.7 55 5.2 NE 13 20 7 11 - - 0.0
26/08:00am 20.7 18.9 12.1 58 4.8 NNE 13 17 7 9 - - 0.0
26/07:30am 19.8 17.8 12.6 63 4.0 N 15 22 8 12 - - 0.0
26/07:00am 19.4 18.1 12.4 64 3.9 NNE 11 19 6 10 - - 0.0
26/06:30am 19.0 17.2 12.0 64 3.9 NE 13 20 7 11 - - 0.0
26/06:00am 19.0 17.5 11.8 63 4.0 NE 11 17 6 9 - - 0.0
26/05:30am 18.9 17.5 12.2 65 3.7 NE 11 19 6 10 - - 0.0
26/05:00am 18.8 17.0 12.1 65 3.7 NE 13 19 7 10 - - 0.0
26/04:30am 18.4 16.1 11.9 66 3.6 ENE 15 20 8 11 - - 0.0
26/04:00am 18.9 16.6 11.9 64 3.9 ENE 15 20 8 11 - - 0.0
26/03:30am 19.0 17.1 11.8 63 4.0 ENE 13 19 7 10 - - 0.0
26/03:00am 19.0 16.8 12.0 64 3.9 E 15 20 8 11 - - 0.0
26/02:30am 19.0 17.3 12.3 65 3.7 E 13 19 7 10 - - 0.0
26/02:00am 19.1 17.8 12.4 65 3.7 E 11 19 6 10 - - 0.0
26/01:30am 19.1 17.0 12.4 65 3.7 E 15 20 8 11 - - 0.0
26/01:00am 19.2 17.5 12.5 65 3.7 E 13 19 7 10 - - 0.0
26/12:30am 19.2 16.8 12.7 66 3.6 E 17 20 9 11 - - 0.0
26/12:00am 19.3 17.7 12.8 66 3.7 E 13 17 7 9 - - 0.0
 
Date/Time
EDT
Temp
°C
App
Temp
°C
Dew
Point
Rel
Hum
%
Delta-T
°C
Wind Press
QNH
hPa
Press
MSL
hPa
Rain
since 9 am
mm
Dir
 
Spd
km/h
Gust
km/h
Spd
kts
Gust
kts
25/11:30pm 19.3 17.7 12.8 66 3.7 E 13 19 7 10 - - 0.0
25/11:00pm 19.4 18.2 12.9 66 3.7 E 11 17 6 9 - - 0.0
25/10:30pm 19.4 17.8 12.7 65 3.8 E 13 19 7 10 - - 0.0
25/10:00pm 19.4 18.3 13.1 67 3.6 ESE 11 15 6 8 - - 0.0
25/09:30pm 19.4 17.8 12.9 66 3.7 ESE 13 20 7 11 - - 0.0
25/09:00pm 19.3 17.7 12.8 66 3.7 E 13 17 7 9 - - 0.0
25/08:30pm 19.3 17.3 12.8 66 3.7 ESE 15 24 8 13 - - 0.0
25/08:00pm 19.3 16.5 12.6 65 3.8 ESE 19 24 10 13 - - 0.0
25/07:30pm 19.5 17.1 12.5 64 3.9 E 17 22 9 12 - - 0.0
25/07:00pm 19.9 17.0 12.9 64 4.0 ESE 20 28 11 15 - - 0.0
25/06:30pm 20.2 17.3 12.2 60 4.5 E 19 30 10 16 - - 0.0
25/06:00pm 20.5 17.3 12.0 58 4.7 ESE 20 28 11 15 - - 0.0
25/05:30pm 20.8 17.4 12.5 59 4.7 SE 22 37 12 20 - - 0.0
25/05:00pm 21.3 18.0 12.7 58 4.9 E 22 33 12 18 - - 0.0
25/04:30pm 22.0 19.3 13.4 58 5.0 ESE 20 30 11 16 - - 0.0
25/04:00pm 22.0 18.8 13.1 57 5.1 ESE 22 30 12 16 - - 0.0
25/03:30pm 22.6 19.2 13.7 57 5.2 ESE 24 32 13 17 - - 0.0
25/03:00pm 21.4 18.5 14.1 63 4.2 SE 22 33 12 18 - - 0.0
25/02:30pm 21.8 19.4 13.9 61 4.6 SE 19 30 10 16 - - 0.0
25/02:00pm 21.1 18.6 14.0 64 4.1 SE 20 32 11 17 - - 0.0
25/01:30pm 20.8 17.6 13.0 61 4.4 SE 22 26 12 14 - - 0.0
25/01:00pm 20.8 16.9 14.5 67 3.7 SE 28 37 15 20 - - 0.0
25/12:30pm 21.5 19.0 15.1 67 3.8 SE 22 32 12 17 - - 0.0
25/12:00pm 21.9 19.5 14.5 63 4.3 SSE 20 32 11 17 - - 0.0
25/11:30am 21.7 18.9 14.4 63 4.3 SSE 22 32 12 17 - - 0.0
25/11:00am 21.7 19.1 14.8 65 4.1 S 22 33 12 18 - - 0.0
25/10:30am 24.0 19.1 4.9 29 9.6 SW 20 32 11 17 - - 0.0
25/10:00am 24.0 19.7 7.2 34 8.8 SW 19 30 10 16 - - 0.0
25/09:30am 23.9 20.9 10.6 43 7.4 SW 17 33 9 18 - - 0.0
25/09:00am 23.8 23.1 15.3 59 5.1 SSW 13 24 7 13 - - 4.4
25/08:30am 23.8 24.0 16.8 65 4.3 SW 11 19 6 10 - - 4.4
25/08:00am 23.6 25.5 18.5 73 3.2 W 6 7 3 4 - - 4.4
25/07:30am 23.4 25.0 18.3 73 3.2 W 7 9 4 5 - - 4.4
25/07:00am 22.9 24.5 18.2 75 2.9 W 7 9 4 5 - - 4.4
25/06:30am 22.6 24.1 17.7 74 3.0 W 6 11 3 6 - - 4.4
25/06:00am 22.9 24.0 17.1 70 3.6 WNW 7 11 4 6 - - 4.4
25/05:30am 23.3 23.0 17.3 69 3.7 N 15 22 8 12 - - 4.4
25/05:00am 23.1 23.8 18.0 73 3.2 NNW 11 19 6 10 - - 4.4
25/04:30am 23.2 23.1 17.9 72 3.3 NW 15 22 8 12 - - 4.4
25/04:00am 23.7 23.0 17.4 68 3.9 NNW 17 26 9 14 - - 4.4
25/03:30am 23.3 23.6 18.0 72 3.3 NNW 13 20 7 11 - - 4.4
25/03:00am 22.8 23.5 18.8 78 2.5 N 13 22 7 12 - - 4.2
25/02:30am 22.7 22.8 19.1 80 2.3 N 17 24 9 13 - - 4.2
25/02:00am 23.2 23.3 19.1 78 2.6 NNW 17 26 9 14 - - 4.0
25/01:30am 23.5 25.4 19.8 80 2.4 NNW 9 13 5 7 - - 3.6
25/01:00am 22.8 25.7 20.7 88 1.4 NW 6 7 3 4 - - 3.4
25/12:30am 22.7 26.7 20.6 88 1.4 CALM 0 2 0 1 - - 3.4
25/12:00am 22.5 25.3 20.4 88 1.4 N 6 7 3 4 - - 3.4
 
Date/Time
EDT
Temp
°C
App
Temp
°C
Dew
Point
Rel
Hum
%
Delta-T
°C
Wind Press
QNH
hPa
Press
MSL
hPa
Rain
since 9 am
mm
Dir
 
Spd
km/h
Gust
km/h
Spd
kts
Gust
kts
24/11:30pm 22.7 25.2 20.2 86 1.6 NNW 7 11 4 6 - - 3.4
24/11:00pm 22.4 25.0 20.5 89 1.2 NNW 7 9 4 5 - - 3.4
24/10:30pm 22.3 25.5 19.8 86 1.6 WSW 2 7 1 4 - - 3.4
24/10:00pm 22.6 26.4 20.1 86 1.6 CALM 0 0 0 0 - - 3.4
24/09:42pm 22.5 24.7 19.5 83 1.9 NE 7 17 4 9 - - 3.2
24/09:31pm 22.5 26.0 19.5 83 1.9 CALM 0 6 0 3 - - 3.2
24/09:30pm 22.7 26.3 19.7 83 1.9 CALM 0 0 0 0 - - 3.2

Other Formats:

Comma delimited format used in spreadsheet applications
http://www.bom.gov.au/fwo/IDN60801/IDN60801.94766.axf

JavaScript Object Notation format (JSON) in row-major order
http://www.bom.gov.au/fwo/IDN60801/IDN60801.94766.json